Time;durP1;ratioP1;P1;durP2;ratioP2;P2;SDS_P1;SDS_P2;PMS_P1;PMS_P2;Temp;Humidity;BMP_temperature;BMP_pressure;BME280_temperature;BME280_humidity;BME280_pressure;Samples;Min_cycle;Max_cycle;Signal;HPM_P1;HPM_P2
2023/04/21 00:00:31;;;;;;;32.53;15.83;;;8.90;99.90;;;;;;2602936;54;20109;31
2023/04/21 00:03:10;;;;;;;23.10;13.02;;;8.90;99.90;;;;;;2603106;54;20041;31
2023/04/21 00:05:49;;;;;;;21.08;13.85;;;8.90;99.90;;;;;;2701745;39;21442;31
2023/04/21 00:08:25;;;;;;;20.67;12.98;;;8.90;99.90;;;;;;2603026;54;21379;31
2023/04/21 00:11:01;;;;;;;25.13;14.57;;;9.00;99.90;;;;;;2602176;54;20880;31
2023/04/21 00:13:38;;;;;;;29.40;15.20;;;9.00;99.90;;;;;;2621626;47;20764;31
2023/04/21 00:16:16;;;;;;;28.25;14.00;;;9.00;99.90;;;;;;2620922;47;20083;31
2023/04/21 00:18:51;;;;;;;23.48;13.82;;;9.00;99.90;;;;;;2603088;54;20022;31
2023/04/21 00:21:31;;;;;;;18.20;12.18;;;9.10;99.90;;;;;;2602859;54;20252;31
2023/04/21 00:24:08;;;;;;;21.15;12.70;;;9.10;99.90;;;;;;2602907;54;20040;31
2023/04/21 00:26:46;;;;;;;22.77;13.73;;;9.10;99.90;;;;;;2602067;54;20874;31
2023/04/21 00:29:22;;;;;;;28.98;14.77;;;9.10;99.90;;;;;;2615991;47;20934;31
2023/04/21 00:31:58;;;;;;;23.45;14.40;;;9.20;99.90;;;;;;2602803;54;20022;31
2023/04/21 00:34:33;;;;;;;;;;;9.20;99.90;;;;;;2603036;54;20034;31
2023/04/21 00:37:12;;;;;;;20.65;13.13;;;9.20;99.90;;;;;;2701310;39;20386;31
2023/04/21 00:39:51;;;;;;;20.55;12.80;;;9.20;99.90;;;;;;2603610;54;20054;31
2023/04/21 00:42:28;;;;;;;22.90;14.00;;;9.20;99.90;;;;;;2622200;46;20029;31
2023/04/21 00:45:08;;;;;;;20.20;12.98;;;9.30;99.90;;;;;;2622477;46;20876;31
2023/04/21 00:47:44;;;;;;;29.40;14.45;;;9.30;99.90;;;;;;2603619;54;20841;31
2023/04/21 00:50:22;;;;;;;25.45;13.90;;;9.30;99.90;;;;;;2603763;54;20871;31
2023/04/21 00:53:04;;;;;;;17.85;13.32;;;9.30;99.90;;;;;;2603583;54;20033;31
2023/04/21 00:55:39;;;;;;;18.10;12.80;;;9.30;99.90;;;;;;2603972;54;20033;31
2023/04/21 00:58:18;;;;;;;21.98;12.75;;;9.30;99.90;;;;;;2720599;39;20485;31
2023/04/21 01:00:52;;;;;;;21.20;12.65;;;9.30;99.90;;;;;;2622322;46;20034;31
2023/04/21 01:03:33;;;;;;;20.95;11.95;;;9.30;99.90;;;;;;2603623;54;20058;31
2023/04/21 01:06:10;;;;;;;21.30;12.70;;;9.30;99.90;;;;;;2621912;46;20035;31
2023/04/21 01:08:49;;;;;;;22.00;13.02;;;9.30;99.90;;;;;;2603411;54;20114;31
2023/04/21 01:11:25;;;;;;;19.85;11.80;;;9.30;99.90;;;;;;2621874;46;20034;31
2023/04/21 01:14:00;;;;;;;18.55;12.00;;;9.30;99.90;;;;;;2603607;54;19962;31
2023/04/21 01:16:38;;;;;;;23.45;13.35;;;9.30;99.90;;;;;;2603341;54;21443;31
2023/04/21 01:19:13;;;;;;;21.42;13.05;;;9.30;99.90;;;;;;2603687;54;20037;31
2023/04/21 01:21:57;;;;;;;27.00;12.60;;;9.20;99.90;;;;;;2621753;46;20029;31
2023/04/21 01:24:33;;;;;;;20.92;12.35;;;9.30;99.90;;;;;;2603723;54;20060;31
2023/04/21 01:27:14;;;;;;;18.40;12.05;;;9.30;99.90;;;;;;2603765;54;20861;31
2023/04/21 01:29:52;;;;;;;16.48;11.13;;;9.30;99.90;;;;;;2603581;54;20105;31
2023/04/21 01:32:30;;;;;;;17.40;12.05;;;9.20;99.90;;;;;;2603248;54;20109;31
2023/04/21 01:35:11;;;;;;;22.65;12.60;;;9.20;99.90;;;;;;2603356;54;25130;31
2023/04/21 01:37:50;;;;;;;21.15;11.80;;;9.20;99.90;;;;;;2603742;54;20026;31
2023/04/21 01:40:27;;;;;;;25.00;12.23;;;9.20;99.90;;;;;;2603415;54;20064;31
2023/04/21 01:43:04;;;;;;;21.97;12.07;;;9.20;99.90;;;;;;2603538;54;19934;31
2023/04/21 01:45:43;;;;;;;20.88;13.60;;;9.20;99.90;;;;;;2603626;54;20081;31
2023/04/21 01:50:52;;;;;;;19.05;11.40;;;9.20;99.90;;;;;;2621887;46;25038;31
2023/04/21 01:53:32;;;;;;;25.05;13.20;;;9.20;99.90;;;;;;2603315;54;20771;31
2023/04/21 01:56:10;;;;;;;21.20;13.07;;;9.20;99.90;;;;;;2621971;46;20030;31
2023/04/21 01:58:47;;;;;;;19.17;12.32;;;9.10;99.90;;;;;;2622110;46;20788;31
2023/04/21 02:01:34;;;;;;;22.35;11.32;;;9.20;99.90;;;;;;2602561;54;20891;31
2023/04/21 02:04:11;;;;;;;18.88;11.55;;;9.10;99.90;;;;;;2621858;46;20034;31
2023/04/21 02:06:48;;;;;;;;;;;9.10;99.90;;;;;;2603774;54;20031;31
2023/04/21 02:09:26;;;;;;;17.92;12.18;;;9.10;99.90;;;;;;2603602;54;19935;31
2023/04/21 02:12:02;;;;;;;20.50;12.07;;;9.10;99.90;;;;;;2603510;54;20031;31
2023/04/21 02:14:38;;;;;;;;;;;9.00;99.90;;;;;;2603537;54;20141;31
2023/04/21 02:17:15;;;;;;;19.20;11.90;;;9.00;99.90;;;;;;2701958;39;20385;31
2023/04/21 02:19:53;;;;;;;21.27;12.53;;;9.00;99.90;;;;;;2602660;54;20062;31
2023/04/21 02:22:32;;;;;;;21.23;12.25;;;9.00;99.90;;;;;;2603241;54;20026;31
2023/04/21 02:25:09;;;;;;;26.27;13.13;;;9.00;99.90;;;;;;2621691;46;20081;31
2023/04/21 02:27:48;;;;;;;18.00;11.73;;;9.00;99.90;;;;;;2603574;54;20671;31
2023/04/21 02:30:25;;;;;;;18.73;12.10;;;9.00;99.90;;;;;;2603575;54;19961;31
2023/04/21 02:33:01;;;;;;;21.52;12.43;;;8.90;99.90;;;;;;2603548;54;20022;31
2023/04/21 02:35:38;;;;;;;20.15;12.35;;;8.90;99.90;;;;;;2603438;54;20033;31
2023/04/21 02:38:14;;;;;;;19.10;12.05;;;8.90;99.90;;;;;;2603187;54;20887;31
2023/04/21 02:40:49;;;;;;;18.15;12.40;;;8.90;99.90;;;;;;2603507;54;20026;31
2023/04/21 02:43:30;;;;;;;18.92;11.30;;;8.90;99.90;;;;;;2603408;54;20889;31
2023/04/21 02:46:09;;;;;;;20.98;12.27;;;8.80;99.90;;;;;;2603422;54;20031;31
2023/04/21 02:48:44;;;;;;;17.80;12.40;;;8.80;99.90;;;;;;2603322;54;20030;31
2023/04/21 02:51:23;;;;;;;25.70;12.70;;;8.80;99.90;;;;;;2621950;46;20989;31
2023/04/21 02:53:59;;;;;;;19.00;12.60;;;8.80;99.90;;;;;;2603386;54;20635;31
2023/04/21 02:56:35;;;;;;;22.52;13.63;;;8.80;99.90;;;;;;2603445;54;19989;31
2023/04/21 02:59:17;;;;;;;16.95;12.02;;;8.80;99.90;;;;;;2603228;54;20767;31
2023/04/21 03:01:52;;;;;;;18.90;12.80;;;8.70;99.90;;;;;;2603279;54;20038;31
2023/04/21 03:04:27;;;;;;;20.33;13.33;;;8.60;99.90;;;;;;2603404;54;20046;31
2023/04/21 03:07:04;;;;;;;19.88;13.27;;;8.60;99.90;;;;;;2603169;54;20027;31
2023/04/21 03:09:40;;;;;;;18.23;13.15;;;8.50;99.90;;;;;;2603289;54;20077;31
2023/04/21 03:12:15;;;;;;;18.75;11.20;;;8.40;99.90;;;;;;2602450;54;20035;31
2023/04/21 03:14:55;;;;;;;;;;;8.30;99.90;;;;;;2602584;54;20626;31
2023/04/21 03:17:31;;;;;;;17.23;10.27;;;8.20;99.90;;;;;;2608328;46;19950;31
2023/04/21 03:20:10;;;;;;;19.83;13.50;;;8.20;99.90;;;;;;2602424;54;20022;31
2023/04/21 03:22:48;;;;;;;18.02;11.68;;;8.10;99.90;;;;;;2700802;39;21629;31
2023/04/21 03:25:26;;;;;;;17.98;11.90;;;8.10;99.90;;;;;;2617866;46;20849;31
2023/04/21 03:28:03;;;;;;;26.37;14.53;;;8.00;99.90;;;;;;2603138;54;20034;31
2023/04/21 03:30:43;;;;;;;15.37;11.37;;;7.90;99.90;;;;;;2700654;39;20434;31
2023/04/21 03:33:18;;;;;;;20.27;13.30;;;7.90;99.90;;;;;;2602995;54;21614;31
2023/04/21 03:35:53;;;;;;;22.50;13.70;;;7.80;99.90;;;;;;2603056;54;20866;31
2023/04/21 03:38:31;;;;;;;21.15;12.45;;;7.70;99.90;;;;;;2603189;54;20848;31
2023/04/21 03:41:09;;;;;;;19.30;12.40;;;7.60;99.90;;;;;;2603059;54;20046;31
2023/04/21 03:43:47;;;;;;;20.00;11.77;;;7.60;99.90;;;;;;2602328;54;19997;31
2023/04/21 03:46:27;;;;;;;21.65;12.15;;;7.60;99.90;;;;;;2602434;54;20870;31
2023/04/21 03:49:06;;;;;;;20.42;13.63;;;7.50;99.90;;;;;;2603231;54;20031;31
2023/04/21 03:51:42;;;;;;;17.95;12.18;;;7.50;99.90;;;;;;2603109;54;20683;31
2023/04/21 03:54:16;;;;;;;;;;;7.40;99.90;;;;;;2603272;54;20038;31
2023/04/21 03:56:52;;;;;;;23.45;13.25;;;7.40;99.90;;;;;;2720008;39;20488;31
2023/04/21 03:59:27;;;;;;;15.23;11.32;;;7.30;99.90;;;;;;2773143;31;20593;31
2023/04/21 04:02:05;;;;;;;17.90;13.27;;;7.30;99.90;;;;;;2700673;39;20506;31
2023/04/21 04:04:40;;;;;;;18.02;12.25;;;7.30;99.90;;;;;;2701553;39;20489;31
2023/04/21 04:07:16;;;;;;;22.98;14.45;;;7.30;99.90;;;;;;2621418;47;20058;31
2023/04/21 04:09:51;;;;;;;21.75;13.70;;;7.30;99.90;;;;;;2602878;54;21385;31
2023/04/21 04:12:31;;;;;;;23.27;12.73;;;7.20;99.90;;;;;;2603193;54;20026;31
2023/04/21 04:15:09;;;;;;;24.75;13.95;;;7.20;99.90;;;;;;2603698;54;20082;31
2023/04/21 04:17:49;;;;;;;22.10;13.35;;;7.20;99.90;;;;;;2603832;54;20068;31
2023/04/21 04:20:24;;;;;;;20.90;13.85;;;7.20;99.90;;;;;;2622297;46;20022;31
2023/04/21 04:23:03;;;;;;;23.45;14.65;;;7.30;99.90;;;;;;2720859;39;20402;31
2023/04/21 04:25:42;;;;;;;22.85;13.80;;;7.30;99.90;;;;;;2603716;54;20931;31
2023/04/21 04:28:21;;;;;;;21.42;13.48;;;7.30;99.90;;;;;;2603785;54;20948;31
2023/04/21 04:30:59;;;;;;;20.30;12.65;;;7.40;99.90;;;;;;2621952;46;20867;31
2023/04/21 04:33:38;;;;;;;21.70;12.80;;;7.50;99.90;;;;;;2603918;54;20081;31
2023/04/21 04:36:18;;;;;;;18.90;14.53;;;7.60;99.90;;;;;;2603645;54;20792;31
2023/04/21 04:38:57;;;;;;;19.27;13.90;;;7.70;99.90;;;;;;2603654;54;20023;31
2023/04/21 04:41:35;;;;;;;29.20;15.25;;;7.90;99.90;;;;;;2702157;39;20508;31
2023/04/21 04:44:14;;;;;;;21.90;14.53;;;8.10;99.90;;;;;;2622022;46;20069;31
2023/04/21 04:46:52;;;;;;;23.13;15.45;;;8.20;99.90;;;;;;2622245;46;20230;31
2023/04/21 04:49:27;;;;;;;24.20;14.60;;;8.40;99.90;;;;;;2603659;54;20875;31
2023/04/21 04:52:07;;;;;;;25.20;14.30;;;8.60;99.90;;;;;;2603716;54;20772;31
2023/04/21 04:54:43;;;;;;;20.55;15.35;;;8.80;99.90;;;;;;2773838;31;21156;31
2023/04/21 04:57:21;;;;;;;23.90;15.52;;;8.90;99.90;;;;;;2602957;54;21666;31
2023/04/21 04:59:58;;;;;;;20.03;13.43;;;9.00;99.90;;;;;;2603133;54;21420;31
2023/04/21 05:02:39;;;;;;;19.50;13.07;;;9.20;99.90;;;;;;2622060;46;20101;31
2023/04/21 05:05:17;;;;;;;19.25;13.50;;;9.40;99.90;;;;;;2602752;54;20113;31
2023/04/21 05:07:56;;;;;;;26.47;14.90;;;9.60;99.90;;;;;;2603528;54;20105;31
2023/04/21 05:10:32;;;;;;;21.08;13.75;;;9.80;99.90;;;;;;2602740;54;20376;31
2023/04/21 05:13:08;;;;;;;26.40;15.95;;;10.10;99.90;;;;;;2603352;54;20038;31
2023/04/21 05:15:44;;;;;;;32.13;18.40;;;10.30;99.90;;;;;;2622106;46;20526;31
2023/04/21 05:18:21;;;;;;;33.25;19.50;;;10.50;99.90;;;;;;2603666;54;20050;31
2023/04/21 05:20:58;;;;;;;37.00;19.40;;;10.80;99.90;;;;;;2602912;54;21003;31
2023/04/21 05:23:38;;;;;;;25.55;15.18;;;11.00;99.90;;;;;;2603337;54;20896;31
2023/04/21 05:26:18;;;;;;;21.95;14.75;;;11.20;99.90;;;;;;2603661;54;20032;31
2023/04/21 05:28:54;;;;;;;27.48;18.83;;;11.50;99.90;;;;;;2603462;54;20048;31
2023/04/21 05:31:31;;;;;;;25.67;17.33;;;11.70;99.90;;;;;;2603432;54;20748;31
2023/04/21 05:34:10;;;;;;;29.42;18.05;;;11.70;99.90;;;;;;2603514;54;20033;31
2023/04/21 05:36:47;;;;;;;23.77;14.63;;;11.90;99.90;;;;;;2603413;54;20026;31
2023/04/21 05:39:27;;;;;;;23.77;15.50;;;12.10;99.90;;;;;;2602604;54;20053;31
2023/04/21 05:42:09;;;;;;;23.45;14.63;;;12.40;99.90;;;;;;2602822;54;20776;31
2023/04/21 05:44:48;;;;;;;22.40;14.57;;;12.50;99.90;;;;;;2604875;46;20857;31
2023/04/21 05:47:24;;;;;;;22.87;15.23;;;12.70;99.90;;;;;;2621680;46;20022;31
2023/04/21 05:50:06;;;;;;;24.58;15.90;;;12.80;99.90;;;;;;2621519;46;20053;31
2023/04/21 05:52:44;;;;;;;22.10;14.90;;;13.00;99.90;;;;;;2603268;54;20026;31
2023/04/21 05:55:33;;;;;;;24.92;16.15;;;13.10;99.90;;;;;;2605137;46;21099;31
2023/04/21 05:58:09;;;;;;;22.05;16.80;;;13.40;99.90;;;;;;2701988;39;20504;31
2023/04/21 06:00:51;;;;;;;23.77;15.88;;;13.60;99.90;;;;;;2621832;46;20038;31
2023/04/21 06:03:27;;;;;;;21.90;15.30;;;13.80;99.90;;;;;;2603474;54;20925;31
2023/04/21 06:06:09;;;;;;;22.85;14.52;;;14.00;99.90;;;;;;2603201;54;20030;31
2023/04/21 06:08:51;;;;;;;28.88;15.70;;;14.20;99.90;;;;;;2603431;54;20872;31
2023/04/21 06:11:32;;;;;;;23.20;14.10;;;14.50;99.90;;;;;;2621577;46;20848;31
2023/04/21 06:14:09;;;;;;;22.10;14.05;;;14.60;99.90;;;;;;2603450;54;20037;31
2023/04/21 06:16:49;;;;;;;23.95;14.70;;;14.80;99.90;;;;;;2603292;54;20042;31
2023/04/21 06:19:27;;;;;;;23.73;14.48;;;15.00;99.90;;;;;;2603275;54;20064;31
2023/04/21 06:22:05;;;;;;;25.10;14.50;;;15.20;99.90;;;;;;2603425;54;20042;31
2023/04/21 06:24:39;;;;;;;22.08;14.82;;;15.50;99.90;;;;;;2603465;54;20023;31
2023/04/21 06:27:19;;;;;;;;;;;15.70;99.90;;;;;;2622024;46;20762;31
2023/04/21 06:29:57;;;;;;;17.30;13.40;;;15.90;99.90;;;;;;2602373;54;20469;31
2023/04/21 06:32:34;;;;;;;21.30;13.63;;;16.00;99.90;;;;;;2602262;54;20027;31
2023/04/21 06:35:14;;;;;;;24.48;14.18;;;16.10;99.90;;;;;;2602285;54;20034;31
2023/04/21 06:37:50;;;;;;;17.55;13.05;;;16.20;99.90;;;;;;2603248;54;20057;31
2023/04/21 06:40:30;;;;;;;19.10;13.30;;;16.50;99.90;;;;;;2621768;46;20060;31
2023/04/21 06:43:22;;;;;;;15.65;12.02;;;16.50;99.90;;;;;;2602332;54;25055;31
2023/04/21 06:46:02;;;;;;;19.95;13.68;;;16.80;99.90;;;;;;2603346;54;20022;31
2023/04/21 06:48:45;;;;;;;18.42;13.55;;;17.00;99.90;;;;;;2603313;54;20019;31
2023/04/21 06:51:38;;;;;;;15.85;12.80;;;17.10;99.90;;;;;;2603248;54;20026;31
2023/04/21 06:54:18;;;;;;;21.20;12.87;;;17.40;99.90;;;;;;2603238;54;20038;31
2023/04/21 06:56:59;;;;;;;15.57;11.87;;;17.50;99.90;;;;;;2701520;39;21460;31
2023/04/21 06:59:39;;;;;;;18.10;12.00;;;17.70;99.90;;;;;;2602426;54;21701;31
2023/04/21 07:02:19;;;;;;;23.00;12.45;;;17.80;99.90;;;;;;2602331;54;20030;31
2023/04/21 07:04:55;;;;;;;17.95;13.10;;;18.00;99.90;;;;;;2609123;46;21793;31
2023/04/21 07:07:38;;;;;;;20.15;12.23;;;18.10;99.90;;;;;;2603052;54;20126;31
2023/04/21 07:10:18;;;;;;;16.63;11.82;;;18.20;99.90;;;;;;2621836;46;21532;31
2023/04/21 07:12:56;;;;;;;15.63;11.33;;;18.40;99.90;;;;;;2603081;46;20696;31
2023/04/21 07:15:36;;;;;;;20.50;12.05;;;18.50;99.90;;;;;;2603239;54;20231;31
2023/04/21 07:18:14;;;;;;;16.95;12.15;;;18.70;99.90;;;;;;2602962;54;20031;31
2023/04/21 07:20:56;;;;;;;14.65;10.35;;;18.90;99.90;;;;;;2603051;54;20772;31
2023/04/21 07:23:36;;;;;;;15.70;11.65;;;19.00;99.90;;;;;;2602605;54;20033;31
2023/04/21 07:26:16;;;;;;;16.55;12.05;;;19.20;99.90;;;;;;2603056;54;20732;31
2023/04/21 07:28:54;;;;;;;14.30;11.13;;;19.50;99.90;;;;;;2602953;54;20858;31
2023/04/21 07:31:38;;;;;;;16.02;10.93;;;19.40;99.90;;;;;;2602985;54;21922;31
2023/04/21 07:34:15;;;;;;;14.13;11.65;;;19.40;99.90;;;;;;2621292;47;20019;31
2023/04/21 07:36:54;;;;;;;15.13;11.05;;;19.50;99.90;;;;;;2602142;54;20030;31
2023/04/21 07:39:32;;;;;;;13.57;10.30;;;19.40;99.90;;;;;;2602901;54;21665;31
2023/04/21 07:45:01;;;;;;;16.90;11.82;;;19.70;99.90;;;;;;2603179;54;20030;31
2023/04/21 07:47:42;;;;;;;18.58;11.88;;;19.90;99.90;;;;;;2603409;54;21236;31
2023/04/21 07:50:22;;;;;;;20.17;11.90;;;20.00;99.90;;;;;;2621985;46;20048;31
2023/04/21 07:53:00;;;;;;;15.20;11.35;;;20.10;99.90;;;;;;2603764;54;20080;31
2023/04/21 07:55:48;;;;;;;17.33;11.38;;;20.30;99.90;;;;;;2603763;54;20027;31
2023/04/21 07:58:25;;;;;;;15.85;11.45;;;20.40;99.50;;;;;;2603616;54;20537;31
2023/04/21 08:01:10;;;;;;;17.55;11.35;;;20.60;99.80;;;;;;2603621;54;20030;31
2023/04/21 08:09:27;;;;;;;17.30;11.60;;;21.00;97.70;;;;;;2603624;54;20701;31
2023/04/21 08:12:04;;;;;;;20.02;11.98;;;21.00;96.90;;;;;;2603464;54;20026;31
2023/04/21 08:14:43;;;;;;;14.40;10.45;;;21.20;97.90;;;;;;2603817;54;20673;31
2023/04/21 08:17:25;;;;;;;13.90;11.60;;;21.40;96.60;;;;;;2603007;54;20061;31
2023/04/21 08:20:03;;;;;;;17.23;12.27;;;21.70;96.60;;;;;;2603113;54;20761;31
2023/04/21 08:22:40;;;;;;;15.83;11.13;;;21.70;95.20;;;;;;2603659;54;21568;31
2023/04/21 08:25:36;;;;;;;14.63;11.10;;;21.90;95.90;;;;;;2603515;54;20089;31
2023/04/21 08:30:54;;;;;;;14.88;10.55;;;22.10;94.60;;;;;;2603719;54;20057;31
2023/04/21 08:36:28;;;;;;;13.13;9.95;;;22.10;92.40;;;;;;2611712;54;20437;31
2023/04/21 08:42:24;;;;;;;15.63;10.70;;;22.20;93.20;;;;;;2603779;54;20026;31
2023/04/21 08:45:01;;;;;;;20.65;11.55;;;22.40;93.60;;;;;;2603949;54;20026;31
2023/04/21 08:47:49;;;;;;;14.07;10.68;;;22.70;93.20;;;;;;2603013;54;20865;31
2023/04/21 08:50:29;;;;;;;15.48;10.77;;;22.80;92.40;;;;;;2702399;39;21043;31
2023/04/21 08:53:05;;;;;;;14.60;10.23;;;22.90;92.70;;;;;;2622153;46;20038;31
2023/04/21 08:55:42;;;;;;;17.25;10.52;;;23.00;93.30;;;;;;2603526;54;20045;31
2023/04/21 08:58:31;;;;;;;17.13;10.85;;;23.30;93.30;;;;;;2604529;46;20057;31
2023/04/21 09:01:18;;;;;;;14.00;10.77;;;23.60;94.00;;;;;;2618447;46;20073;31
2023/04/21 09:26:23;;;;;;;;;;;;;;;;;;;;;
2023/04/21 10:01:15;;;;;;;11.20;7.20;;;24.00;77.70;;;;;;2601621;54;20015;31
2023/04/21 10:07:42;;;;;;;10.95;6.70;;;23.80;76.40;;;;;;2603778;54;20026;31
2023/04/21 10:10:24;;;;;;;8.93;7.20;;;23.70;75.40;;;;;;2603502;54;20030;31
2023/04/21 10:22:22;;;;;;;9.63;6.63;;;23.50;74.20;;;;;;2602800;54;20037;31
2023/04/21 10:48:43;;;;;;;7.10;4.80;;;22.60;72.70;;;;;;2603409;54;20861;31
2023/04/21 10:54:16;;;;;;;6.30;5.20;;;22.60;71.50;;;;;;2602417;54;20034;31
2023/04/21 10:56:56;;;;;;;6.50;5.00;;;22.60;72.00;;;;;;2603126;54;20030;31
2023/04/21 10:59:32;;;;;;;11.05;5.30;;;22.60;69.50;;;;;;2603277;54;20023;31
2023/04/21 11:02:50;;;;;;;6.25;5.25;;;22.30;69.20;;;;;;2603340;54;20076;31
2023/04/21 11:05:37;;;;;;;6.13;4.47;;;22.10;69.70;;;;;;2603262;54;20027;31
2023/04/21 11:08:14;;;;;;;5.47;4.10;;;22.10;70.20;;;;;;2603176;54;20779;31
2023/04/21 11:10:59;;;;;;;6.20;3.83;;;22.20;69.10;;;;;;2603166;54;20039;31
2023/04/21 11:13:35;;;;;;;9.57;5.07;;;22.00;67.70;;;;;;2603161;54;20027;31
2023/04/21 11:19:06;;;;;;;7.28;5.22;;;21.80;71.30;;;;;;2603073;54;20896;31
2023/04/21 11:21:41;;;;;;;6.53;4.63;;;21.80;70.50;;;;;;2603146;54;20877;31
2023/04/21 11:24:22;;;;;;;5.38;4.78;;;21.90;70.30;;;;;;2701621;39;21561;31
2023/04/21 11:27:14;;;;;;;;;;;22.00;70.80;;;;;;2603384;54;20085;31
2023/04/21 11:29:50;;;;;;;8.77;4.60;;;21.80;68.70;;;;;;2603155;54;19946;31
2023/04/21 11:32:28;;;;;;;8.93;4.53;;;21.90;71.00;;;;;;2602938;54;20860;31
2023/04/21 11:35:07;;;;;;;11.48;5.05;;;21.90;70.00;;;;;;2603089;54;20865;31
2023/04/21 11:37:48;;;;;;;8.43;5.13;;;21.80;70.80;;;;;;2602970;54;20030;31
2023/04/21 11:40:30;;;;;;;8.60;5.20;;;21.80;71.00;;;;;;2602986;54;20093;31
2023/04/21 11:43:10;;;;;;;6.20;4.40;;;21.70;71.80;;;;;;2603111;54;20101;31
2023/04/21 11:45:53;;;;;;;;;;;21.80;72.00;;;;;;2603643;54;20070;31
2023/04/21 11:48:33;;;;;;;6.60;4.93;;;21.80;70.00;;;;;;2603044;54;19934;31
2023/04/21 11:54:15;;;;;;;8.75;5.22;;;21.90;73.50;;;;;;2603173;54;20018;31
2023/04/21 11:56:59;;;;;;;9.00;6.07;;;21.90;72.10;;;;;;2602971;54;20937;31
2023/04/21 11:59:42;;;;;;;7.90;4.45;;;22.00;73.00;;;;;;2602989;54;20038;31
2023/04/21 12:02:25;;;;;;;10.57;5.10;;;22.00;70.00;;;;;;2604459;47;20054;31
2023/04/21 12:14:49;;;;;;;7.15;4.72;;;21.90;70.40;;;;;;2602030;54;19942;31
2023/04/21 12:20:36;;;;;;;7.00;5.15;;;21.60;68.30;;;;;;2602030;54;20035;31
2023/04/21 12:39:09;;;;;;;5.63;4.45;;;21.50;70.70;;;;;;2603007;54;20889;31
2023/04/21 12:42:12;;;;;;;7.40;5.30;;;21.50;69.20;;;;;;2603552;54;20027;31
2023/04/21 12:49:18;;;;;;;5.55;4.20;;;21.30;69.80;;;;;;2603536;54;20116;31
2023/04/21 12:52:05;;;;;;;6.35;4.50;;;21.30;70.50;;;;;;2603477;54;20894;31
2023/04/21 12:57:32;;;;;;;8.57;5.05;;;21.20;70.30;;;;;;2603802;54;20026;31
2023/04/21 13:00:28;;;;;;;8.53;4.70;;;21.10;69.80;;;;;;2603683;54;20027;31
2023/04/21 13:03:06;;;;;;;5.63;4.30;;;21.00;69.60;;;;;;2603637;54;20031;31
2023/04/21 13:05:45;;;;;;;6.95;5.13;;;20.90;69.50;;;;;;2603675;54;20026;31
2023/04/21 13:08:33;;;;;;;10.73;5.40;;;20.80;70.60;;;;;;2603558;54;20032;31
2023/04/21 13:11:20;;;;;;;8.65;5.05;;;20.80;70.90;;;;;;2602887;54;20880;31
2023/04/21 13:14:00;;;;;;;5.40;4.35;;;20.80;71.30;;;;;;2602731;54;20875;31
2023/04/21 13:16:44;;;;;;;9.70;4.90;;;20.90;71.80;;;;;;2614178;46;20097;31
2023/04/21 13:19:20;;;;;;;6.47;5.43;;;20.90;70.90;;;;;;2602591;54;20781;31
2023/04/21 13:21:57;;;;;;;8.50;5.23;;;20.80;71.00;;;;;;2602791;54;20026;31
2023/04/21 13:24:38;;;;;;;5.20;4.70;;;20.70;69.50;;;;;;2602841;54;20254;31
2023/04/21 13:27:13;;;;;;;6.97;5.25;;;20.70;70.30;;;;;;2603630;54;20748;31
2023/04/21 13:29:53;;;;;;;9.07;5.13;;;20.70;70.80;;;;;;2603637;54;20881;31
2023/04/21 13:32:32;;;;;;;8.85;5.35;;;20.70;73.20;;;;;;2621948;46;20100;31
2023/04/21 13:35:12;;;;;;;10.48;5.15;;;20.70;71.50;;;;;;2608769;46;20128;31
2023/04/21 13:38:02;;;;;;;9.50;5.30;;;20.70;69.90;;;;;;2602729;54;20888;31
2023/04/21 13:40:44;;;;;;;6.15;4.75;;;20.70;71.70;;;;;;2602510;54;20157;31
2023/04/21 13:43:27;;;;;;;6.25;5.22;;;20.70;72.30;;;;;;2603172;54;20081;31
2023/04/21 13:46:04;;;;;;;9.20;5.05;;;20.70;72.20;;;;;;2603259;54;20072;31
2023/04/21 13:48:49;;;;;;;8.68;6.05;;;20.70;73.00;;;;;;2603485;54;20050;31
2023/04/21 13:51:38;;;;;;;6.50;5.05;;;20.60;72.40;;;;;;2606881;46;20140;31
2023/04/21 13:54:21;;;;;;;7.75;5.40;;;20.60;72.90;;;;;;2603621;54;20034;31
2023/04/21 13:57:03;;;;;;;7.85;4.22;;;20.60;71.40;;;;;;2622165;46;20055;31
2023/04/21 13:59:51;;;;;;;6.60;5.20;;;20.60;72.20;;;;;;2603572;54;20862;31
2023/04/21 14:02:32;;;;;;;6.85;4.70;;;20.60;72.30;;;;;;2603372;54;20030;31
2023/04/21 14:05:18;;;;;;;7.32;5.22;;;20.60;72.10;;;;;;2603480;54;20035;31
2023/04/21 14:07:55;;;;;;;6.40;4.77;;;20.60;72.50;;;;;;2603175;54;20029;31
2023/04/21 14:10:34;;;;;;;7.07;4.80;;;20.70;71.90;;;;;;2603253;54;20030;31
2023/04/21 14:13:11;;;;;;;8.45;5.10;;;20.80;72.80;;;;;;2622060;46;20038;31
2023/04/21 14:16:11;;;;;;;6.32;4.88;;;20.80;71.10;;;;;;2603242;54;20948;31
2023/04/21 14:19:03;;;;;;;7.72;5.25;;;20.80;71.20;;;;;;2621481;46;20107;31
2023/04/21 14:21:49;;;;;;;7.22;5.15;;;20.80;72.90;;;;;;2621667;46;20027;31
2023/04/21 14:24:31;;;;;;;6.45;5.75;;;20.80;73.10;;;;;;2603010;54;20038;31
2023/04/21 14:27:11;;;;;;;13.48;6.07;;;20.80;72.40;;;;;;2621712;46;20898;31
2023/04/21 14:30:12;;;;;;;6.90;5.10;;;20.80;73.20;;;;;;2603405;54;20031;31
2023/04/21 14:32:49;;;;;;;7.82;5.40;;;20.80;73.10;;;;;;2602805;54;20030;31
2023/04/21 14:35:43;;;;;;;5.78;4.95;;;20.70;73.30;;;;;;2603227;54;20023;31
2023/04/21 14:38:19;;;;;;;9.85;5.82;;;20.70;74.00;;;;;;2621578;46;20883;31
2023/04/21 14:41:05;;;;;;;10.65;5.68;;;20.70;72.90;;;;;;2602643;54;20029;31
2023/04/21 14:43:44;;;;;;;10.35;6.18;;;20.70;74.10;;;;;;2621832;46;20911;31
2023/04/21 14:46:29;;;;;;;7.38;4.93;;;20.60;72.90;;;;;;2621792;46;20110;31
2023/04/21 14:49:08;;;;;;;7.85;5.70;;;20.60;73.70;;;;;;2621924;46;20104;31
2023/04/21 14:51:48;;;;;;;7.67;4.87;;;20.50;73.60;;;;;;2603442;54;20037;31
2023/04/21 14:54:29;;;;;;;6.90;5.20;;;20.40;74.50;;;;;;2608135;46;20030;31
2023/04/21 14:57:14;;;;;;;9.07;5.10;;;20.40;74.80;;;;;;2602030;54;20030;31
2023/04/21 15:00:05;;;;;;;6.50;5.30;;;20.30;73.70;;;;;;2602524;54;20764;31
2023/04/21 15:02:50;;;;;;;7.53;4.85;;;20.20;74.60;;;;;;2602966;54;20857;31
2023/04/21 15:05:29;;;;;;;6.17;5.27;;;20.20;74.40;;;;;;2603125;54;20049;31
2023/04/21 15:08:20;;;;;;;6.15;5.55;;;20.00;74.10;;;;;;2602973;54;20847;31
2023/04/21 15:13:38;;;;;;;11.13;5.45;;;19.80;75.20;;;;;;2621442;46;20855;31
2023/04/21 15:16:21;;;;;;;6.95;5.00;;;19.70;75.20;;;;;;2603365;54;20022;31
2023/04/21 15:19:01;;;;;;;7.10;4.60;;;19.70;75.70;;;;;;2603282;54;20204;31
2023/04/21 15:21:52;;;;;;;8.60;4.28;;;19.70;75.80;;;;;;2602940;54;20048;31
2023/04/21 15:27:11;;;;;;;8.07;4.83;;;19.80;77.10;;;;;;2603180;54;20022;31
2023/04/21 15:29:51;;;;;;;8.35;5.50;;;19.90;75.70;;;;;;2621518;46;20038;31
2023/04/21 15:32:31;;;;;;;8.43;5.05;;;20.00;76.60;;;;;;2615496;46;20060;31
2023/04/21 15:35:16;;;;;;;6.47;5.68;;;20.00;76.10;;;;;;2602990;54;20928;31
2023/04/21 15:37:52;;;;;;;13.27;8.55;;;20.00;75.10;;;;;;2603162;54;20963;31
2023/04/21 15:40:31;;;;;;;11.17;7.20;;;20.00;75.60;;;;;;2602346;54;20046;31
2023/04/21 15:43:19;;;;;;;6.78;6.03;;;20.00;74.40;;;;;;2602290;54;20839;31
2023/04/21 15:46:11;;;;;;;6.78;5.55;;;20.00;75.20;;;;;;2603211;54;20931;31
2023/04/21 15:51:45;;;;;;;8.40;4.40;;;19.90;75.00;;;;;;2602361;54;20026;31
2023/04/21 15:54:27;;;;;;;;;;;19.80;75.70;;;;;;2621371;47;20061;31
2023/04/21 15:57:09;;;;;;;16.48;7.97;;;19.80;75.50;;;;;;2602682;54;20672;31
2023/04/21 15:59:50;;;;;;;25.00;15.50;;;19.70;75.90;;;;;;2602640;54;20078;31
2023/04/21 16:02:35;;;;;;;23.50;16.55;;;19.60;76.20;;;;;;2602971;54;20026;31
2023/04/21 16:05:18;;;;;;;20.05;14.45;;;19.50;76.90;;;;;;2602626;54;20113;31
2023/04/21 16:08:04;;;;;;;48.75;28.77;;;19.40;77.60;;;;;;2603459;54;20105;31
2023/04/21 16:13:49;;;;;;;42.95;26.23;;;19.20;78.60;;;;;;2603669;54;20046;31
2023/04/21 16:19:14;;;;;;;27.15;18.23;;;19.10;79.20;;;;;;2602965;54;21367;31
2023/04/21 16:22:02;;;;;;;24.05;16.67;;;19.00;79.80;;;;;;2602901;54;20823;31
2023/04/21 16:24:47;;;;;;;21.95;17.60;;;19.00;79.50;;;;;;2702087;39;21710;31
2023/04/21 16:27:24;;;;;;;28.30;25.40;;;18.90;79.90;;;;;;2603501;54;20026;31
2023/04/21 16:30:16;;;;;;;31.93;26.93;;;18.80;80.60;;;;;;2622472;46;20105;31
2023/04/21 16:32:55;;;;;;;97.20;68.20;;;18.70;80.40;;;;;;2603743;54;20085;31
2023/04/21 16:38:30;;;;;;;;;;;18.60;80.80;;;;;;2622570;46;20034;31
2023/04/21 16:41:11;;;;;;;44.67;29.75;;;18.60;81.20;;;;;;2603601;54;19993;31
2023/04/21 16:43:50;;;;;;;96.53;69.97;;;18.50;81.80;;;;;;2602826;54;20081;31
2023/04/21 16:46:34;;;;;;;62.30;45.70;;;18.50;82.40;;;;;;2602850;54;20952;31
2023/04/21 16:49:20;;;;;;;21.70;16.00;;;18.50;81.60;;;;;;2606994;46;20899;31